aviador You're here:

LFRG Decoded Metar

DEAUVILLE in FRANCE
Report Time2017-11-22 05:00:00
UTC Time2017-11-22 05:26:07
Flight Rules vfr VFR
Wind210° at 11 kt
W.Decomp.*RWY 30: 0.2 kt HW 11 kt LCW
W.Rank210° ranks 3
Current wind is above 210° avg. (8.1)
Visibility9999 m
Phenomena:N/A
Clouds:N/A
Expected CloudBase > 800 ft AGL from Temp-Dew spread
CeilingNone
Temp10°C (ISA -4)
Dew Point08°C (88% RH)
AAT5.6°C
QNH1008 hPa
Density Alt312 ft
Elevation479 ft
Report Wrong Elevation
Raw Report
METAR LFRG 220500Z AUTO 21011KT CAVOK 10/08 Q1008=

Extra information for LFRG:More info

Metar Taf Metar & Taf Last 4 Metars F.Rules Stats Wind Profile Meteogram Temp Stats Airport Information Weather charts Add Link Nearby VenuesMetar ALERT Operation Metar Decoded Social comments